Time;durP1;ratioP1;P1;durP2;ratioP2;P2;SDS_P1;SDS_P2;PMS_P1;PMS_P2;Temp;Humidity;BMP_temperature;BMP_pressure;BME280_temperature;BME280_humidity;BME280_pressure;Samples;Min_cycle;Max_cycle;Signal;HPM_P1;HPM_P2
2021/03/02 00:01:47;;;;;;;18.67;12.13;;;;;;;2.19;83.56;102317.56;5088558;28;20671;-81
2021/03/02 00:04:13;;;;;;;16.57;11.80;;;;;;;2.17;83.69;102317.50;5079847;28;20199;-80
2021/03/02 00:06:40;;;;;;;12.53;11.33;;;;;;;2.23;83.56;102321.16;5086972;28;20277;-81
2021/03/02 00:09:06;;;;;;;13.17;11.77;;;;;;;2.19;83.29;102320.13;5087518;28;20204;-78
2021/03/02 00:11:32;;;;;;;12.83;11.50;;;;;;;2.20;83.36;102319.34;5087369;28;20215;-80
2021/03/02 00:13:58;;;;;;;12.00;10.80;;;;;;;2.23;83.93;102313.44;5081982;28;20670;-80
2021/03/02 00:16:25;;;;;;;17.77;11.80;;;;;;;2.25;83.42;102319.53;5081990;28;20277;-78
2021/03/02 00:19:00;;;;;;;17.43;11.87;;;;;;;2.21;84.23;102310.78;5088434;28;20201;-80
2021/03/02 00:21:32;;;;;;;11.57;10.53;;;;;;;2.24;83.12;102317.75;5084873;28;20702;-81
2021/03/02 00:24:03;;;;;;;12.33;11.13;;;;;;;2.22;83.81;102320.28;5088758;28;20197;-81
2021/03/02 00:26:32;;;;;;;12.37;11.17;;;;;;;2.17;83.21;102319.19;5082703;28;20238;-79
2021/03/02 00:29:03;;;;;;;11.87;10.77;;;;;;;2.24;82.92;102313.50;5084993;28;20261;-80
2021/03/02 00:31:31;;;;;;;15.93;11.03;;;;;;;2.26;83.68;102318.72;5085433;28;20214;-78
2021/03/02 00:33:57;;;;;;;13.13;10.70;;;;;;;2.26;83.63;102317.03;5087482;28;20208;-80
2021/03/02 00:36:23;;;;;;;13.90;11.90;;;;;;;2.18;84.44;102321.84;5082882;28;20217;-80
2021/03/02 00:38:49;;;;;;;11.93;10.20;;;;;;;2.21;84.41;102318.50;5088251;28;20706;-81
2021/03/02 00:41:15;;;;;;;11.70;10.70;;;;;;;2.30;84.04;102318.03;5084332;28;20699;-81
2021/03/02 00:43:41;;;;;;;12.83;11.63;;;;;;;2.30;84.05;102320.63;5090680;28;20216;-79
2021/03/02 00:46:07;;;;;;;12.07;10.73;;;;;;;2.32;83.76;102322.47;5086616;28;20703;-80
2021/03/02 00:48:33;;;;;;;12.53;11.37;;;;;;;2.31;83.58;102319.81;5088670;28;20285;-81
2021/03/02 00:51:00;;;;;;;12.97;11.63;;;;;;;2.25;85.30;102311.81;5085980;28;20200;-81
2021/03/02 00:53:25;;;;;;;14.33;10.77;;;;;;;2.19;84.68;102312.41;5087456;28;20216;-80
2021/03/02 00:55:51;;;;;;;10.57;9.57;;;;;;;2.25;84.32;102307.53;5088617;28;20193;-81
2021/03/02 00:58:18;;;;;;;14.30;12.03;;;;;;;2.29;85.20;102313.72;5090311;28;20824;-81
2021/03/02 01:00:44;;;;;;;12.17;11.07;;;;;;;2.33;83.99;102308.75;5086344;28;20220;-79
2021/03/02 01:03:10;;;;;;;15.07;11.30;;;;;;;2.32;84.88;102309.59;5089097;28;20623;-79
2021/03/02 01:05:36;;;;;;;22.93;11.37;;;;;;;2.24;85.30;102305.78;5087213;28;20196;-80
2021/03/02 01:08:02;;;;;;;12.63;10.33;;;;;;;2.26;85.04;102301.59;5089275;28;20615;-81
2021/03/02 01:10:28;;;;;;;12.60;10.43;;;;;;;2.30;84.80;102306.06;5086671;28;20188;-81
2021/03/02 01:12:53;;;;;;;22.77;11.53;;;;;;;2.35;84.72;102294.25;5088449;28;20211;-81
2021/03/02 01:15:20;;;;;;;15.37;11.53;;;;;;;2.31;84.65;102294.06;5088035;28;20200;-80
2021/03/02 01:17:46;;;;;;;11.57;10.47;;;;;;;2.25;84.84;102291.19;5087262;28;20223;-81
2021/03/02 01:20:12;;;;;;;24.20;10.70;;;;;;;2.24;84.33;102286.84;5086796;28;20220;-81
2021/03/02 01:22:38;;;;;;;21.57;11.00;;;;;;;2.18;84.71;102290.03;5084717;28;20200;-81
2021/03/02 01:25:07;;;;;;;45.77;11.53;;;;;;;2.13;84.52;102288.94;5082840;28;20211;-80
2021/03/02 01:27:32;;;;;;;23.63;12.00;;;;;;;2.04;84.46;102291.97;5086664;28;20225;-82
2021/03/02 01:29:58;;;;;;;12.37;10.93;;;;;;;2.03;84.52;102289.34;5088568;28;20198;-81
2021/03/02 01:32:25;;;;;;;11.47;10.47;;;;;;;2.10;83.82;102283.66;5087328;28;20331;-81
2021/03/02 01:34:51;;;;;;;11.07;10.07;;;;;;;2.12;84.01;102284.59;5089051;28;20429;-80
2021/03/02 01:37:17;;;;;;;12.07;10.87;;;;;;;2.16;84.22;102286.50;5086398;28;20646;-80
2021/03/02 01:39:42;;;;;;;11.30;10.30;;;;;;;2.22;83.79;102288.47;5089625;28;20284;-81
2021/03/02 01:42:08;;;;;;;10.17;9.30;;;;;;;2.25;83.88;102283.47;5066154;22;20261;-83
2021/03/02 01:44:34;;;;;;;17.00;11.17;;;;;;;2.20;84.08;102283.28;5042390;28;20264;-83
2021/03/02 01:47:00;;;;;;;12.03;9.93;;;;;;;2.23;83.65;102287.69;5045986;28;20225;-81
2021/03/02 01:49:27;;;;;;;10.50;9.60;;;;;;;2.15;83.73;102279.59;5043632;28;20221;-80
2021/03/02 01:51:53;;;;;;;10.10;9.30;;;;;;;2.17;84.27;102276.25;5043473;28;20234;-82
2021/03/02 01:54:19;;;;;;;10.60;9.73;;;;;;;2.10;84.39;102281.97;5043334;28;20206;-80
2021/03/02 01:56:45;;;;;;;10.37;9.37;;;;;;;2.11;84.33;102275.13;5042477;28;20293;-83
2021/03/02 01:59:12;;;;;;;14.33;10.70;;;;;;;2.12;84.08;102274.28;5043467;28;20199;-83
2021/03/02 02:01:39;;;;;;;9.50;8.70;;;;;;;2.14;83.58;102277.81;5033250;28;20234;-82
2021/03/02 02:04:10;;;;;;;9.60;8.80;;;;;;;2.10;83.47;102279.41;5036188;28;20586;-80
2021/03/02 02:06:41;;;;;;;25.80;11.63;;;;;;;2.09;83.69;102269.91;5035810;28;20208;-83
2021/03/02 02:09:14;;;;;;;12.17;11.17;;;;;;;2.11;83.66;102278.56;5035938;28;20575;-82
2021/03/02 02:11:47;;;;;;;14.07;12.87;;;;;;;2.10;84.18;102275.91;5035288;28;20226;-82
2021/03/02 02:14:18;;;;;;;13.30;12.30;;;;;;;2.05;84.29;102282.56;5036563;28;20665;-81
2021/03/02 02:16:48;;;;;;;12.73;11.60;;;;;;;2.07;83.47;102280.94;5035992;28;20229;-83
2021/03/02 02:19:36;;;;;;;13.43;12.03;;;;;;;2.05;84.33;102272.28;5036154;28;20194;-83
2021/03/02 02:22:27;;;;;;;13.00;11.03;;;;;;;2.04;83.34;102270.50;5030342;28;20272;-82
2021/03/02 02:25:12;;;;;;;11.13;10.23;;;;;;;2.04;83.90;102271.38;5036597;28;20206;-80
2021/03/02 02:27:41;;;;;;;18.03;11.33;;;;;;;1.98;83.96;102276.25;5035400;28;20210;-83
2021/03/02 02:30:09;;;;;;;10.93;9.73;;;;;;;1.99;83.58;102278.03;5035710;28;20198;-81
2021/03/02 02:32:37;;;;;;;11.73;10.07;;;;;;;2.02;84.01;102269.53;5034787;28;20222;-81
2021/03/02 02:35:04;;;;;;;9.90;9.10;;;;;;;1.94;84.21;102261.47;5034248;28;20202;-81
2021/03/02 02:37:32;;;;;;;14.40;10.00;;;;;;;1.93;83.98;102260.59;5035569;28;20206;-83
2021/03/02 02:39:59;;;;;;;10.13;9.23;;;;;;;1.90;84.00;102265.63;5035513;28;20222;-81
2021/03/02 02:42:29;;;;;;;9.73;8.80;;;;;;;1.94;83.65;102264.03;5031952;28;20234;-83
2021/03/02 02:44:57;;;;;;;15.60;10.03;;;;;;;1.85;84.34;102266.22;5035903;28;20210;-80
2021/03/02 02:47:23;;;;;;;15.83;10.13;;;;;;;1.89;84.87;102273.25;5035464;28;20202;-82
2021/03/02 02:49:49;;;;;;;11.50;10.50;;;;;;;1.90;83.89;102264.72;5034905;28;20661;-83
2021/03/02 02:52:16;;;;;;;11.43;10.43;;;;;;;1.90;84.23;102269.84;5027273;28;20237;-83
2021/03/02 02:54:43;;;;;;;10.77;9.80;;;;;;;1.90;83.75;102263.03;5031834;28;20214;-81
2021/03/02 02:57:10;;;;;;;18.43;10.57;;;;;;;1.84;84.55;102267.88;5033412;28;20202;-80
2021/03/02 02:59:40;;;;;;;36.00;12.57;;;;;;;1.81;84.69;102277.19;5027204;28;20226;-81
2021/03/02 03:02:10;;;;;;;15.47;10.83;;;;;;;1.86;83.95;102273.09;5033949;28;20226;-81
2021/03/02 03:04:40;;;;;;;12.97;10.33;;;;;;;1.88;84.26;102274.94;5034687;28;20676;-79
2021/03/02 03:07:12;;;;;;;11.90;10.90;;;;;;;1.87;84.84;102278.34;5034265;28;20203;-81
2021/03/02 03:09:40;;;;;;;17.27;10.83;;;;;;;1.89;83.90;102283.56;5034450;28;20194;-80
2021/03/02 03:12:09;;;;;;;10.07;9.17;;;;;;;1.87;84.55;102280.03;5034334;28;20221;-80
2021/03/02 03:14:41;;;;;;;13.23;10.03;;;;;;;1.77;84.41;102279.59;5038085;28;20543;-80
2021/03/02 03:17:12;;;;;;;11.33;10.23;;;;;;;1.79;83.65;102274.53;5039164;28;20194;-82
2021/03/02 03:19:39;;;;;;;23.27;11.07;;;;;;;1.85;84.76;102282.53;5040496;28;20217;-80
2021/03/02 03:22:05;;;;;;;10.67;9.87;;;;;;;1.91;84.38;102284.50;5039508;28;20623;-83
2021/03/02 03:24:31;;;;;;;12.90;10.47;;;;;;;1.95;83.71;102289.88;5039533;28;20202;-80
2021/03/02 03:26:58;;;;;;;10.13;9.33;;;;;;;1.93;84.79;102283.75;5039158;28;20209;-80
2021/03/02 03:29:25;;;;;;;10.87;9.87;;;;;;;1.91;84.31;102282.81;5038597;28;20275;-80
2021/03/02 03:31:52;;;;;;;11.30;10.30;;;;;;;1.96;84.14;102285.59;5037863;28;20952;-83
2021/03/02 03:34:19;;;;;;;10.93;9.03;;;;;;;1.94;84.27;102282.06;5039312;28;20213;-80
2021/03/02 03:36:46;;;;;;;10.40;9.50;;;;;;;1.97;84.22;102285.66;5038935;28;20221;-83
2021/03/02 03:39:12;;;;;;;10.50;9.60;;;;;;;1.97;83.81;102283.09;5038669;28;20280;-83
2021/03/02 03:41:39;;;;;;;9.93;9.13;;;;;;;1.96;84.15;102283.00;5038073;28;20237;-81
2021/03/02 03:44:05;;;;;;;10.73;9.73;;;;;;;1.97;84.44;102279.66;5038217;28;20199;-82
2021/03/02 03:46:31;;;;;;;10.07;9.27;;;;;;;1.95;83.19;102277.00;5038998;28;20546;-82
2021/03/02 03:48:57;;;;;;;12.57;8.87;;;;;;;1.92;83.99;102283.69;5038118;28;20205;-83
2021/03/02 03:51:26;;;;;;;9.17;8.47;;;;;;;1.83;84.61;102275.56;5038523;28;20634;-83
2021/03/02 03:53:53;;;;;;;17.77;9.60;;;;;;;1.84;84.67;102275.59;5038737;28;20260;-78
2021/03/02 03:56:21;;;;;;;10.73;8.23;;;;;;;1.85;84.86;102277.38;5037481;28;20233;-82
2021/03/02 03:58:49;;;;;;;10.40;8.87;;;;;;;1.82;84.36;102277.22;5038596;28;20203;-80
2021/03/02 04:01:15;;;;;;;14.77;9.33;;;;;;;1.82;84.09;102271.19;5037672;28;20230;-81
2021/03/02 04:03:41;;;;;;;9.40;8.50;;;;;;;1.83;84.89;102268.72;5033983;28;20628;-82
2021/03/02 04:06:08;;;;;;;12.30;8.77;;;;;;;1.80;85.01;102265.97;5038055;28;20206;-80
2021/03/02 04:08:35;;;;;;;9.20;8.40;;;;;;;1.84;84.18;102269.56;5038450;28;20229;-83
2021/03/02 04:11:01;;;;;;;9.50;8.47;;;;;;;1.86;84.08;102273.97;5021365;28;20305;-82
2021/03/02 04:13:28;;;;;;;9.47;8.47;;;;;;;1.87;84.00;102275.75;5038613;28;20804;-83
2021/03/02 04:15:57;;;;;;;9.37;8.57;;;;;;;1.84;84.08;102277.31;5038084;28;20202;-82
2021/03/02 04:18:23;;;;;;;9.13;8.00;;;;;;;1.79;83.49;102275.41;5038375;28;20410;-83
2021/03/02 04:20:49;;;;;;;9.53;8.47;;;;;;;1.81;83.40;102283.19;5037780;28;20260;-83
2021/03/02 04:23:16;;;;;;;20.77;9.40;;;;;;;1.76;84.16;102279.50;5036237;28;20217;-83
2021/03/02 04:25:42;;;;;;;7.90;7.20;;;;;;;1.72;83.95;102280.19;5036716;28;20206;-80
2021/03/02 04:28:08;;;;;;;8.77;7.90;;;;;;;1.67;84.26;102274.84;5038595;28;20663;-81
2021/03/02 04:30:36;;;;;;;8.07;7.47;;;;;;;1.65;83.22;102273.88;5037396;28;20260;-80
2021/03/02 04:33:03;;;;;;;8.27;7.57;;;;;;;1.66;83.38;102274.75;5037872;28;20260;-83
2021/03/02 04:35:29;;;;;;;7.87;7.27;;;;;;;1.63;83.24;102283.22;5038077;28;20212;-83
2021/03/02 04:37:55;;;;;;;29.00;9.93;;;;;;;1.68;83.96;102278.28;5037666;28;20206;-83
2021/03/02 04:40:21;;;;;;;10.10;8.13;;;;;;;1.63;83.22;102282.34;5037375;28;20262;-81
2021/03/02 04:42:48;;;;;;;7.47;6.87;;;;;;;1.60;83.75;102283.06;5036978;28;20222;-83
2021/03/02 04:45:15;;;;;;;8.37;7.67;;;;;;;1.68;83.61;102286.00;5032455;28;20202;-83
2021/03/02 04:47:43;;;;;;;8.87;8.17;;;;;;;1.63;83.94;102278.06;5037716;28;20218;-83
2021/03/02 04:50:10;;;;;;;11.13;8.83;;;;;;;1.64;83.35;102284.09;5038148;28;20203;-81
2021/03/02 04:52:35;;;;;;;8.57;7.57;;;;;;;1.71;84.25;102286.16;5037430;28;20230;-82
2021/03/02 04:55:02;;;;;;;7.40;6.83;;;;;;;1.68;83.48;102279.16;5036990;28;20230;-83
2021/03/02 04:57:27;;;;;;;9.33;8.20;;;;;;;1.59;84.01;102287.34;5037592;28;20233;-83
2021/03/02 04:59:54;;;;;;;8.77;8.07;;;;;;;1.68;84.41;102291.16;5037313;28;20223;-82
2021/03/02 05:02:20;;;;;;;8.17;7.50;;;;;;;1.66;83.48;102282.47;5037527;28;20230;-82
2021/03/02 05:04:46;;;;;;;12.33;7.63;;;;;;;1.65;83.40;102291.91;5037911;28;20206;-81
2021/03/02 05:07:12;;;;;;;8.00;7.30;;;;;;;1.63;84.66;102292.66;5036547;28;20605;-82
2021/03/02 05:09:37;;;;;;;11.97;7.77;;;;;;;1.63;84.19;102295.22;5037335;28;20289;-82
2021/03/02 05:12:04;;;;;;;7.70;7.10;;;;;;;1.59;83.87;102295.06;5037250;28;20788;-80
2021/03/02 05:14:30;;;;;;;9.90;8.30;;;;;;;1.55;84.70;102290.56;5037903;28;20209;-82
2021/03/02 05:16:56;;;;;;;11.63;7.63;;;;;;;1.58;84.42;102287.25;5037061;28;20262;-81
2021/03/02 05:19:22;;;;;;;11.20;7.70;;;;;;;1.55;84.46;102289.69;5037565;28;20264;-84
2021/03/02 05:21:48;;;;;;;8.53;7.63;;;;;;;1.58;84.87;102292.41;5036941;28;20234;-80
2021/03/02 05:24:14;;;;;;;8.60;7.90;;;;;;;1.56;84.41;102289.75;5033125;28;20202;-80
2021/03/02 05:26:40;;;;;;;8.27;7.57;;;;;;;1.52;84.20;102294.69;5035125;28;20221;-81
2021/03/02 05:29:06;;;;;;;8.27;7.67;;;;;;;1.57;83.95;102280.38;5037268;28;20233;-84
2021/03/02 05:31:31;;;;;;;8.67;7.87;;;;;;;1.59;84.39;102289.03;5037116;28;20218;-83
2021/03/02 05:33:58;;;;;;;9.07;8.27;;;;;;;1.59;83.99;102271.88;5037241;28;20202;-83
2021/03/02 05:36:24;;;;;;;9.03;7.80;;;;;;;1.63;83.85;102274.63;5037463;28;20210;-83
2021/03/02 05:38:50;;;;;;;12.80;9.47;;;;;;;1.60;84.05;102275.34;5037661;28;20281;-82
2021/03/02 05:41:17;;;;;;;23.63;8.90;;;;;;;1.57;84.61;102277.78;5036867;28;20226;-83
2021/03/02 05:43:44;;;;;;;14.73;8.63;;;;;;;1.52;85.03;102274.09;5032439;28;20202;-83
2021/03/02 05:46:11;;;;;;;8.43;7.73;;;;;;;1.53;84.54;102274.19;5037112;28;20198;-83
2021/03/02 05:48:40;;;;;;;20.90;8.47;;;;;;;1.57;84.34;102272.63;5037565;28;20232;-83
2021/03/02 05:51:07;;;;;;;10.53;8.27;;;;;;;1.53;84.40;102274.19;5036665;28;20272;-83
2021/03/02 05:53:33;;;;;;;21.00;9.77;;;;;;;1.52;84.51;102281.81;5037216;28;20206;-80
2021/03/02 05:55:59;;;;;;;8.37;7.67;;;;;;;1.57;84.64;102276.09;5028811;28;20198;-83
2021/03/02 05:58:25;;;;;;;7.83;7.13;;;;;;;1.54;84.15;102277.63;5037107;28;20227;-80
2021/03/02 06:00:53;;;;;;;7.83;7.13;;;;;;;1.49;83.46;102279.13;5036860;28;20264;-83
2021/03/02 06:03:19;;;;;;;7.27;6.67;;;;;;;1.39;84.48;102273.53;5037178;28;20210;-83
2021/03/02 06:05:45;;;;;;;11.13;8.17;;;;;;;1.36;85.12;102272.47;5036590;28;20214;-84
2021/03/02 06:08:11;;;;;;;8.23;7.43;;;;;;;1.34;84.95;102274.97;5036834;28;20252;-83
2021/03/02 06:10:37;;;;;;;7.80;7.10;;;;;;;1.30;84.93;102278.22;5036839;28;20198;-84
2021/03/02 06:13:03;;;;;;;13.57;7.00;;;;;;;1.28;85.08;102273.81;5036672;28;20213;-83
2021/03/02 06:15:30;;;;;;;16.57;8.33;;;;;;;1.26;85.17;102278.00;5037134;28;20229;-83
2021/03/02 06:18:12;;;;;;;23.23;7.80;;;;;;;1.27;85.22;102277.16;5036628;28;20201;-83
2021/03/02 06:20:38;;;;;;;7.10;6.43;;;;;;;1.27;84.73;102280.66;5036167;28;20222;-82
2021/03/02 06:23:26;;;;;;;6.30;5.80;;;;;;;1.36;85.39;102285.34;5036867;28;20232;-82
2021/03/02 06:25:54;;;;;;;7.87;7.00;;;;;;;1.35;84.83;102275.88;5035538;28;20197;-83
2021/03/02 06:28:36;;;;;;;13.90;6.67;;;;;;;1.21;84.33;102276.88;5037568;28;20220;-84
2021/03/02 06:31:02;;;;;;;6.67;6.00;;;;;;;1.24;84.27;102277.91;5021094;28;20222;-83
2021/03/02 06:33:28;;;;;;;9.60;6.17;;;;;;;1.31;84.16;102285.13;5037292;28;20198;-84
2021/03/02 06:35:54;;;;;;;12.37;6.83;;;;;;;1.33;84.10;102286.09;5036409;28;20289;-84
2021/03/02 06:38:28;;;;;;;11.63;6.67;;;;;;;1.29;84.61;102288.41;5035228;28;20206;-83
2021/03/02 06:40:54;;;;;;;6.10;5.60;;;;;;;1.39;85.03;102293.22;5035101;28;20229;-83
2021/03/02 06:43:38;;;;;;;9.77;6.67;;;;;;;1.34;84.98;102282.69;5036863;28;20198;-83
2021/03/02 06:46:06;;;;;;;6.83;6.23;;;;;;;1.38;84.25;102284.59;5020871;28;20204;-81
2021/03/02 06:48:33;;;;;;;6.90;5.90;;;;;;;1.44;84.08;102284.03;5040040;28;20201;-83
2021/03/02 06:50:59;;;;;;;6.20;5.70;;;;;;;1.45;84.06;102280.66;5040531;28;20233;-83
2021/03/02 06:53:26;;;;;;;26.23;5.73;;;;;;;1.50;84.06;102288.59;5040286;28;20692;-81
2021/03/02 06:55:52;;;;;;;6.60;5.93;;;;;;;1.55;83.89;102289.69;5040343;28;20210;-83
2021/03/02 06:58:20;;;;;;;7.10;6.40;;;;;;;1.46;83.46;102290.13;5041402;28;20280;-83
2021/03/02 07:00:48;;;;;;;10.20;6.77;;;;;;;1.43;84.07;102287.41;5040567;28;20233;-81
2021/03/02 07:03:28;;;;;;;5.63;5.23;;;;;;;1.45;83.56;102288.38;5035090;28;20208;-83
2021/03/02 07:05:56;;;;;;;6.43;5.77;;;;;;;1.48;83.55;102280.78;5040358;28;20203;-83
2021/03/02 07:08:22;;;;;;;19.63;7.37;;;;;;;1.49;83.43;102284.25;5039200;28;20297;-82
2021/03/02 07:10:51;;;;;;;6.70;6.03;;;;;;;1.42;83.95;102288.22;5036259;28;20591;-83
2021/03/02 07:13:18;;;;;;;8.33;5.10;;;;;;;1.44;84.38;102285.72;5039137;28;20204;-81
2021/03/02 07:15:46;;;;;;;5.67;5.17;;;;;;;1.48;83.63;102292.78;5040830;28;20614;-81
2021/03/02 07:18:15;;;;;;;9.27;6.67;;;;;;;1.54;84.31;102298.22;5045469;28;20209;-82
2021/03/02 07:20:47;;;;;;;7.57;6.87;;;;;;;1.52;83.99;102294.69;5042335;28;20234;-81
2021/03/02 07:23:16;;;;;;;8.83;6.10;;;;;;;1.47;84.99;102294.47;5043271;28;20229;-82
2021/03/02 07:25:44;;;;;;;15.40;7.47;;;;;;;1.57;84.79;102295.81;5049410;28;20206;-81
2021/03/02 07:28:12;;;;;;;6.67;6.17;;;;;;;1.69;83.93;102290.34;5048979;28;20198;-81
2021/03/02 07:30:38;;;;;;;12.07;6.87;;;;;;;1.64;83.84;102284.97;5049108;28;20197;-82
2021/03/02 07:33:05;;;;;;;6.27;5.77;;;;;;;1.72;83.38;102291.34;5049444;28;20229;-84
2021/03/02 07:35:31;;;;;;;6.47;5.87;;;;;;;1.76;83.98;102300.13;5049405;28;20761;-82
2021/03/02 07:38:12;;;;;;;7.03;6.40;;;;;;;1.86;83.50;102306.56;5043703;28;20206;-81
2021/03/02 07:40:49;;;;;;;6.83;6.20;;;;;;;1.89;83.50;102306.75;5044380;28;20217;-80
2021/03/02 07:43:39;;;;;;;6.73;6.13;;;;;;;1.92;83.45;102307.78;5046923;28;20244;-83
2021/03/02 07:46:38;;;;;;;7.93;5.63;;;;;;;1.96;83.83;102308.75;5046157;28;20228;-82
2021/03/02 07:49:31;;;;;;;8.00;6.00;;;;;;;1.99;83.54;102307.22;5047722;28;20720;-77
2021/03/02 07:52:18;;;;;;;6.43;5.40;;;;;;;1.99;82.29;102299.50;5044971;28;20233;-82
2021/03/02 07:54:46;;;;;;;5.97;5.47;;;;;;;2.02;82.79;102309.03;5042551;28;20284;-83
2021/03/02 07:57:25;;;;;;;6.13;5.67;;;;;;;2.05;82.27;102310.91;5047888;28;20198;-82
2021/03/02 08:00:28;;;;;;;6.53;6.03;;;;;;;2.09;83.09;102323.13;5047840;28;20206;-83
2021/03/02 08:03:18;;;;;;;5.97;5.47;;;;;;;2.09;82.84;102320.53;5045645;28;20204;-83
2021/03/02 08:05:44;;;;;;;7.80;6.33;;;;;;;2.11;83.63;102321.50;5048499;28;20194;-83
2021/03/02 08:08:29;;;;;;;7.53;6.93;;;;;;;2.23;83.05;102321.16;5039919;28;20202;-82
2021/03/02 08:10:56;;;;;;;7.50;6.70;;;;;;;2.28;83.32;102320.56;5043195;28;20233;-79
2021/03/02 08:13:36;;;;;;;10.20;7.20;;;;;;;2.28;83.24;102320.56;5059930;22;20287;-79
2021/03/02 08:16:04;;;;;;;7.10;6.40;;;;;;;2.35;83.10;102317.44;5047218;28;20212;-80
2021/03/02 08:18:36;;;;;;;6.53;6.00;;;;;;;2.36;83.20;102321.78;5050990;28;20590;-80
2021/03/02 08:21:15;;;;;;;6.70;6.13;;;;;;;2.42;83.30;102322.88;5047770;28;20217;-81
2021/03/02 08:23:54;;;;;;;7.60;6.97;;;;;;;2.50;82.83;102327.56;5037926;28;20233;-79
2021/03/02 08:26:26;;;;;;;8.43;7.73;;;;;;;2.59;82.63;102320.22;5036360;28;20217;-81
2021/03/02 08:29:13;;;;;;;8.53;7.73;;;;;;;2.67;82.21;102317.09;5033661;28;20257;-80
2021/03/02 08:31:42;;;;;;;10.00;7.40;;;;;;;2.69;82.70;102318.06;5029383;28;20218;-79
2021/03/02 08:34:10;;;;;;;8.33;7.53;;;;;;;2.73;82.18;102317.38;5030453;28;20231;-81
2021/03/02 08:36:37;;;;;;;8.30;7.50;;;;;;;2.70;82.80;102318.13;5031923;28;20217;-80
2021/03/02 08:39:08;;;;;;;8.43;7.70;;;;;;;2.75;82.60;102324.34;5031861;28;20202;-81
2021/03/02 08:41:36;;;;;;;8.23;7.53;;;;;;;2.81;82.34;102326.31;5028621;28;20218;-80
2021/03/02 08:44:04;;;;;;;7.90;7.20;;;;;;;2.84;82.36;102326.47;5025932;28;20779;-81
2021/03/02 08:46:34;;;;;;;8.60;7.87;;;;;;;2.88;82.61;102327.47;5031175;28;20373;-80
2021/03/02 08:49:09;;;;;;;7.50;6.80;;;;;;;2.89;82.83;102322.38;5029833;28;20204;-79
2021/03/02 08:51:35;;;;;;;8.77;7.43;;;;;;;2.94;82.79;102327.75;5029617;28;20584;-79
2021/03/02 08:54:01;;;;;;;8.03;7.40;;;;;;;2.96;81.61;102323.53;5030587;28;20226;-80
2021/03/02 08:56:27;;;;;;;8.80;8.07;;;;;;;2.98;82.44;102320.19;5028890;28;20194;-79
2021/03/02 08:58:55;;;;;;;8.63;7.93;;;;;;;3.05;82.68;102316.16;5041789;28;20206;-77
2021/03/02 09:01:29;;;;;;;9.27;8.47;;;;;;;3.13;83.35;102326.81;5048872;28;20584;-77
2021/03/02 09:04:10;;;;;;;9.43;8.63;;;;;;;3.22;83.41;102323.75;5033901;28;20233;-78
2021/03/02 09:06:37;;;;;;;8.40;7.70;;;;;;;3.28;82.71;102313.69;5033125;28;20288;-78
2021/03/02 09:09:05;;;;;;;8.10;7.37;;;;;;;3.25;81.19;102317.03;5033443;28;20202;-77
2021/03/02 09:11:33;;;;;;;7.73;7.03;;;;;;;3.28;81.96;102318.84;5031847;28;20210;-80
2021/03/02 09:14:01;;;;;;;8.70;7.90;;;;;;;3.35;82.20;102315.66;5027521;28;20238;-82
2021/03/02 09:16:42;;;;;;;8.63;7.77;;;;;;;3.34;81.94;102317.38;5032792;28;20580;-82
2021/03/02 09:19:21;;;;;;;9.63;8.40;;;;;;;3.39;81.74;102317.59;5033724;28;20681;-82
2021/03/02 09:21:59;;;;;;;9.13;8.23;;;;;;;3.43;81.98;102316.91;5042729;28;20216;-79
2021/03/02 09:24:28;;;;;;;8.37;7.67;;;;;;;3.47;82.11;102317.88;5042104;28;20216;-82
2021/03/02 09:27:02;;;;;;;8.40;7.63;;;;;;;3.53;81.67;102316.44;5056414;28;20665;-81
2021/03/02 09:29:29;;;;;;;11.97;7.50;;;;;;;3.58;82.13;102314.03;5043553;28;20198;-78
2021/03/02 09:31:57;;;;;;;7.70;7.00;;;;;;;3.64;81.70;102316.84;5052140;28;20221;-78
2021/03/02 09:34:31;;;;;;;8.27;7.50;;;;;;;3.69;80.90;102312.75;5039723;28;20207;-79
2021/03/02 09:37:02;;;;;;;8.97;8.27;;;;;;;3.74;81.09;102320.69;5037318;28;20216;-82
2021/03/02 09:39:29;;;;;;;8.40;7.70;;;;;;;3.80;81.20;102314.88;5036274;28;20206;-80
2021/03/02 09:41:55;;;;;;;8.77;8.07;;;;;;;3.85;80.33;102319.41;5053666;28;20221;-78
2021/03/02 09:44:26;;;;;;;8.87;8.07;;;;;;;3.88;80.45;102313.47;5031487;28;20253;-79
2021/03/02 09:46:54;;;;;;;8.10;7.40;;;;;;;3.93;80.12;102315.41;5041184;28;20209;-79
2021/03/02 09:49:36;;;;;;;9.33;8.63;;;;;;;3.96;80.81;102309.47;5040968;28;20229;-78
2021/03/02 09:52:02;;;;;;;8.53;7.73;;;;;;;4.01;80.47;102312.25;5022637;28;20233;-77
2021/03/02 09:54:28;;;;;;;7.70;7.10;;;;;;;4.01;80.75;102320.00;5027384;28;20195;-77
2021/03/02 09:57:01;;;;;;;7.53;6.93;;;;;;;4.05;80.45;102321.88;5025204;28;20693;-78
2021/03/02 09:59:27;;;;;;;8.40;7.73;;;;;;;4.12;80.82;102319.59;5024949;28;20253;-79
2021/03/02 10:01:53;;;;;;;8.20;7.60;;;;;;;4.20;80.49;102309.53;5025590;28;20226;-78
2021/03/02 10:04:20;;;;;;;7.87;7.17;;;;;;;4.26;79.71;102303.72;5025973;28;20210;-79
2021/03/02 10:06:47;;;;;;;7.70;7.10;;;;;;;4.36;79.77;102311.88;5026239;28;20296;-80
2021/03/02 10:09:21;;;;;;;7.90;7.27;;;;;;;4.45;80.15;102303.56;5024650;28;20828;-79
2021/03/02 10:11:48;;;;;;;7.97;7.30;;;;;;;4.57;79.32;102309.16;5024391;28;20195;-78
2021/03/02 10:14:14;;;;;;;9.07;8.33;;;;;;;4.74;79.22;102316.69;5027928;28;20256;-78
2021/03/02 10:16:42;;;;;;;8.23;7.53;;;;;;;4.89;78.98;102311.13;5025605;28;20198;-79
2021/03/02 10:19:16;;;;;;;7.97;7.30;;;;;;;5.00;78.68;102316.69;5027488;28;20202;-79
2021/03/02 10:21:44;;;;;;;7.70;7.10;;;;;;;5.08;78.39;102310.94;5022875;28;20212;-78
2021/03/02 10:24:17;;;;;;;7.90;7.30;;;;;;;5.19;77.88;102306.13;5025103;28;20219;-78
2021/03/02 10:26:43;;;;;;;8.57;7.87;;;;;;;5.30;77.38;102299.59;5022318;28;20191;-80
2021/03/02 10:29:10;;;;;;;7.57;7.07;;;;;;;5.35;77.49;102297.13;5025645;28;20242;-77
2021/03/02 10:31:36;;;;;;;9.13;8.33;;;;;;;5.32;77.78;102297.06;5023676;28;20211;-78
2021/03/02 10:34:04;;;;;;;8.33;7.67;;;;;;;5.22;78.83;102297.59;5027614;28;20644;-78
2021/03/02 10:36:32;;;;;;;8.03;7.43;;;;;;;5.18;78.96;102291.44;5024784;28;20204;-78
2021/03/02 10:38:59;;;;;;;7.70;7.10;;;;;;;5.12;80.30;102294.69;5028484;28;20584;-78
2021/03/02 10:41:28;;;;;;;8.73;8.03;;;;;;;5.12;80.01;102291.22;5024244;28;20233;-79
2021/03/02 10:43:55;;;;;;;8.37;7.67;;;;;;;5.12;80.11;102286.91;5026130;28;20290;-78
2021/03/02 10:46:22;;;;;;;8.37;7.67;;;;;;;5.15;80.56;102291.31;5023991;28;20198;-79
2021/03/02 10:48:49;;;;;;;10.10;7.93;;;;;;;5.17;80.16;102290.56;5026474;28;20294;-80
2021/03/02 10:51:16;;;;;;;8.37;7.67;;;;;;;5.20;81.18;102287.19;5024737;28;20198;-79
2021/03/02 10:53:42;;;;;;;8.83;8.13;;;;;;;5.26;81.39;102289.09;5025683;28;20220;-80
2021/03/02 10:56:08;;;;;;;8.47;7.80;;;;;;;5.34;81.65;102288.50;5025240;28;20202;-81
2021/03/02 10:58:35;;;;;;;8.43;7.73;;;;;;;5.42;81.13;102280.97;5024590;28;20668;-79
2021/03/02 11:01:01;;;;;;;8.53;7.83;;;;;;;5.55;82.50;102284.84;5026463;28;20268;-78
2021/03/02 11:03:27;;;;;;;9.20;8.30;;;;;;;5.63;81.47;102282.47;5025139;28;20652;-79
2021/03/02 11:05:53;;;;;;;8.73;8.03;;;;;;;5.69;80.88;102282.66;5026579;28;20207;-77
2021/03/02 11:08:19;;;;;;;9.10;8.33;;;;;;;5.74;80.61;102276.78;5030468;28;20227;-78
2021/03/02 11:10:46;;;;;;;7.57;6.97;;;;;;;5.78;80.11;102277.78;5024925;28;20194;-78
2021/03/02 11:13:12;;;;;;;8.33;7.67;;;;;;;5.85;80.60;102274.56;5025848;28;20234;-78
2021/03/02 11:15:39;;;;;;;7.93;7.33;;;;;;;5.93;80.10;102272.19;5027462;28;20290;-79
2021/03/02 11:18:05;;;;;;;8.07;7.47;;;;;;;6.05;81.51;102282.06;5025092;28;20219;-79
2021/03/02 11:20:32;;;;;;;8.75;8.15;;;;;;;6.19;81.67;102264.31;5025539;28;20450;-80
2021/03/02 11:22:58;;;;;;;8.33;7.73;;;;;;;6.32;80.80;102267.31;5025448;28;20310;-79
2021/03/02 11:25:24;;;;;;;8.40;7.80;;;;;;;6.47;80.31;102258.19;5025256;28;20593;-80
2021/03/02 11:27:51;;;;;;;7.33;6.83;;;;;;;6.60;80.31;102262.88;5025496;28;20208;-80
2021/03/02 11:30:18;;;;;;;7.33;6.83;;;;;;;6.70;79.66;102263.97;5024297;28;20579;-79
2021/03/02 11:32:45;;;;;;;7.53;7.03;;;;;;;6.79;78.71;102253.84;5024674;28;20226;-80
2021/03/02 11:35:11;;;;;;;7.23;6.63;;;;;;;6.82;78.80;102246.16;5029261;28;20327;-80